Time;durP1;ratioP1;P1;durP2;ratioP2;P2;SDS_P1;SDS_P2;PMS_P1;PMS_P2;Temp;Humidity;BMP_temperature;BMP_pressure;BME280_temperature;BME280_humidity;BME280_pressure;Samples;Min_cycle;Max_cycle;Signal;HPM_P1;HPM_P2
2022/04/15 00:01:09;;;;;;;15.23;5.68;;;;;;;8.37;58.82;99877.09;5020286;28;20028;-88
2022/04/15 00:03:35;;;;;;;14.45;5.70;;;;;;;8.29;59.15;99868.38;5019280;28;20037;-86
2022/04/15 00:06:00;;;;;;;12.70;5.85;;;;;;;8.31;59.17;99876.19;5019578;28;20037;-88
2022/04/15 00:08:26;;;;;;;16.35;6.20;;;;;;;8.22;59.32;99869.59;5036697;28;20033;-88
2022/04/15 00:10:51;;;;;;;13.68;6.20;;;;;;;8.29;59.46;99868.38;5020434;28;20083;-88
2022/04/15 00:13:24;;;;;;;14.80;6.20;;;;;;;8.20;59.94;99855.59;5036745;28;20029;-85
2022/04/15 00:15:50;;;;;;;11.73;6.15;;;;;;;8.26;59.33;99865.38;5020994;28;20033;-87
2022/04/15 00:18:16;;;;;;;15.25;6.35;;;;;;;8.29;59.38;99859.50;5036764;28;20024;-87
2022/04/15 00:20:41;;;;;;;11.13;7.15;;;;;;;8.21;60.19;99870.63;5052891;28;20106;-88
2022/04/15 00:23:07;;;;;;;16.85;8.80;;;;;;;8.05;59.89;99858.78;5019525;28;20099;-88
2022/04/15 00:25:32;;;;;;;17.17;7.75;;;;;;;8.16;59.63;99865.19;5035928;28;20494;-87
2022/04/15 00:27:58;;;;;;;15.35;7.38;;;;;;;8.08;59.53;99859.13;5036050;28;20032;-88
2022/04/15 00:30:23;;;;;;;16.77;7.15;;;;;;;8.09;60.12;99859.94;5019742;28;20033;-88
2022/04/15 00:32:49;;;;;;;18.38;7.78;;;;;;;8.01;60.31;99855.81;5019656;28;20028;-88
2022/04/15 00:35:14;;;;;;;14.65;7.28;;;;;;;7.94;60.65;99857.00;5019101;28;20457;-87
2022/04/15 00:37:40;;;;;;;19.92;7.50;;;;;;;7.88;60.92;99854.19;5019461;28;20025;-88
2022/04/15 00:40:08;;;;;;;13.80;7.35;;;;;;;7.95;60.57;99862.13;5035969;28;20110;-88
2022/04/15 00:42:34;;;;;;;13.27;6.68;;;;;;;8.00;59.94;99845.31;5018905;28;20422;-88
2022/04/15 00:45:03;;;;;;;14.50;7.47;;;;;;;8.00;59.92;99845.31;5019156;28;20029;-88
2022/04/15 00:47:51;;;;;;;14.55;7.55;;;;;;;7.99;59.97;99857.06;5035844;28;20490;-88
2022/04/15 00:50:17;;;;;;;27.15;8.57;;;;;;;7.91;60.50;99842.19;5053219;28;20021;-88
2022/04/15 00:52:44;;;;;;;14.80;8.75;;;;;;;7.85;60.99;99837.78;5035546;28;20450;-88
2022/04/15 00:55:09;;;;;;;15.00;9.00;;;;;;;7.81;61.40;99839.31;5035282;28;20090;-88
2022/04/15 00:57:36;;;;;;;19.00;8.43;;;;;;;7.87;60.83;99831.13;5035343;28;20483;-88
2022/04/15 01:00:04;;;;;;;14.95;8.95;;;;;;;7.85;60.91;99843.16;5035145;28;20494;-88
2022/04/15 01:02:29;;;;;;;14.60;8.75;;;;;;;7.76;60.93;99840.03;5034790;28;20029;-88
2022/04/15 01:04:55;;;;;;;23.85;8.23;;;;;;;7.75;61.05;99826.88;5019025;28;20032;-88
2022/04/15 01:07:22;;;;;;;12.57;7.97;;;;;;;7.77;61.06;99852.38;5019031;28;20037;-88
2022/04/15 01:09:50;;;;;;;14.05;7.55;;;;;;;7.65;61.40;99836.31;5034954;28;20368;-88
2022/04/15 01:12:16;;;;;;;15.07;7.85;;;;;;;7.58;61.15;99838.34;5035431;28;20032;-88
2022/04/15 01:14:41;;;;;;;15.23;8.18;;;;;;;7.56;61.59;99837.75;5018673;28;20028;-88
2022/04/15 01:17:07;;;;;;;17.52;8.85;;;;;;;7.44;62.40;99835.09;5051918;28;20029;-88
2022/04/15 01:19:32;;;;;;;16.67;8.85;;;;;;;7.49;61.46;99834.38;5035138;28;20041;-87
2022/04/15 01:21:58;;;;;;;15.65;8.60;;;;;;;7.49;61.56;99835.22;5035161;28;20028;-88
2022/04/15 01:24:23;;;;;;;16.42;8.85;;;;;;;7.48;61.42;99830.09;5019148;28;20107;-88
2022/04/15 01:26:49;;;;;;;14.00;8.63;;;;;;;7.32;62.02;99823.59;5051631;28;20021;-87
2022/04/15 01:29:15;;;;;;;18.67;9.25;;;;;;;7.39;61.34;99835.00;5052328;28;20029;-87
2022/04/15 01:31:40;;;;;;;14.60;8.75;;;;;;;7.31;62.23;99830.00;5019106;28;20025;-87
2022/04/15 01:34:06;;;;;;;17.02;9.60;;;;;;;7.14;61.86;99816.53;5035492;28;20029;-87
2022/04/15 01:36:31;;;;;;;15.80;9.25;;;;;;;7.12;62.61;99809.75;5036115;28;20024;-87
2022/04/15 01:38:58;;;;;;;19.80;10.65;;;;;;;7.12;62.92;99820.47;5052184;28;20029;-88
2022/04/15 01:41:24;;;;;;;20.95;10.90;;;;;;;7.14;62.88;99821.06;5035833;28;20029;-87
2022/04/15 01:43:49;;;;;;;23.40;11.00;;;;;;;7.08;62.74;99823.63;5019182;28;20133;-87
2022/04/15 01:46:15;;;;;;;26.27;12.35;;;;;;;7.13;62.95;99822.91;5035784;28;20029;-87
2022/04/15 01:48:40;;;;;;;19.98;11.35;;;;;;;7.08;62.72;99809.44;5035942;28;20082;-86
2022/04/15 01:51:06;;;;;;;17.52;11.40;;;;;;;7.02;63.11;99821.06;5035512;28;20509;-87
2022/04/15 01:53:31;;;;;;;22.27;11.75;;;;;;;6.98;62.96;99823.41;5018936;28;20025;-87
2022/04/15 01:55:57;;;;;;;23.10;12.75;;;;;;;6.93;62.91;99817.09;5035388;28;20024;-87
2022/04/15 01:58:22;;;;;;;23.38;13.02;;;;;;;6.82;63.45;99802.69;5018946;28;20025;-86
2022/04/15 02:00:48;;;;;;;26.77;13.30;;;;;;;6.85;63.09;99813.75;5034768;28;20102;-88
2022/04/15 02:03:13;;;;;;;29.75;13.25;;;;;;;6.84;63.52;99813.97;5035542;28;20029;-88
2022/04/15 02:05:39;;;;;;;25.75;12.25;;;;;;;6.86;62.69;99814.56;5035161;28;20052;-87
2022/04/15 02:08:04;;;;;;;30.52;15.57;;;;;;;6.84;63.63;99805.94;5018752;28;20487;-87
2022/04/15 02:10:30;;;;;;;28.23;13.63;;;;;;;6.82;63.68;99816.06;5034591;28;20387;-87
2022/04/15 02:12:55;;;;;;;25.63;13.02;;;;;;;6.73;63.51;99812.13;5051176;28;20024;-87
2022/04/15 02:15:21;;;;;;;26.80;13.30;;;;;;;6.65;63.56;99807.94;5034823;28;20026;-87
2022/04/15 02:17:46;;;;;;;24.48;13.75;;;;;;;6.61;64.33;99817.47;5018657;28;20025;-87
2022/04/15 02:20:12;;;;;;;23.25;12.52;;;;;;;6.68;64.01;99819.00;5034207;28;20047;-87
2022/04/15 02:22:37;;;;;;;26.08;13.25;;;;;;;6.64;63.75;99815.16;5035091;28;20024;-88
2022/04/15 02:25:04;;;;;;;24.33;12.90;;;;;;;6.53;63.84;99810.56;5051732;28;20060;-87
2022/04/15 02:27:29;;;;;;;19.35;12.18;;;;;;;6.51;64.47;99811.88;5036324;28;20029;-87
2022/04/15 02:29:55;;;;;;;18.77;12.52;;;;;;;6.60;63.89;99821.16;5021769;28;20537;-87
2022/04/15 02:32:20;;;;;;;20.38;12.13;;;;;;;6.54;64.71;99811.41;5022080;28;20518;-87
2022/04/15 02:34:46;;;;;;;16.55;11.23;;;;;;;6.52;64.77;99814.31;5038459;28;20053;-87
2022/04/15 02:37:11;;;;;;;16.92;10.88;;;;;;;6.45;64.28;99797.53;5038680;28;20013;-87
2022/04/15 02:39:37;;;;;;;17.80;11.52;;;;;;;6.47;64.40;99815.00;5021219;28;20032;-87
2022/04/15 02:42:02;;;;;;;20.75;11.20;;;;;;;6.28;64.73;99802.75;5031306;28;20086;-87
2022/04/15 02:44:32;;;;;;;23.50;11.13;;;;;;;6.25;65.26;99803.22;5058968;28;20074;-88
2022/04/15 02:46:58;;;;;;;25.42;9.70;;;;;;;6.17;64.89;99811.56;5041932;28;20102;-87
2022/04/15 02:49:26;;;;;;;20.75;11.60;;;;;;;6.10;65.30;99798.31;5024578;28;20486;-87
2022/04/15 02:51:51;;;;;;;17.55;11.27;;;;;;;6.11;65.65;99805.28;5041852;28;20020;-87
2022/04/15 02:54:17;;;;;;;21.65;11.55;;;;;;;6.04;65.89;99794.69;5025134;28;20055;-89
2022/04/15 02:56:42;;;;;;;18.15;10.60;;;;;;;6.12;65.38;99803.41;5042187;28;20024;-87
2022/04/15 02:59:07;;;;;;;22.05;10.60;;;;;;;6.13;65.21;99794.34;5041842;28;20070;-88
2022/04/15 03:01:33;;;;;;;27.08;11.15;;;;;;;6.15;65.15;99793.06;5021878;28;20032;-93
2022/04/15 03:03:59;;;;;;;19.73;11.30;;;;;;;6.19;65.48;99799.59;5007042;28;20029;-93
2022/04/15 03:06:24;;;;;;;19.35;11.38;;;;;;;6.21;64.60;99786.81;5006877;28;20036;-93
2022/04/15 03:08:50;;;;;;;17.45;11.23;;;;;;;6.16;65.53;99789.34;5007228;28;20025;-91
2022/04/15 03:11:15;;;;;;;15.88;10.38;;;;;;;6.13;65.48;99791.69;5005565;28;20052;-88
2022/04/15 03:13:41;;;;;;;17.77;10.68;;;;;;;6.05;65.56;99785.59;5052835;28;20033;-89
2022/04/15 03:16:06;;;;;;;17.95;11.52;;;;;;;6.05;65.78;99792.81;5046175;28;20021;-89
2022/04/15 03:18:32;;;;;;;19.05;10.82;;;;;;;6.14;65.63;99799.44;5032358;28;20103;-88
2022/04/15 03:20:58;;;;;;;19.20;10.98;;;;;;;6.03;65.67;99800.25;5023355;28;20041;-88
2022/04/15 03:23:23;;;;;;;26.52;11.85;;;;;;;6.02;65.60;99798.63;5023092;28;20457;-88
2022/04/15 03:25:48;;;;;;;17.77;11.18;;;;;;;5.96;65.70;99791.53;5056766;28;20012;-89
2022/04/15 03:28:15;;;;;;;20.52;11.15;;;;;;;5.88;66.29;99792.63;5040296;28;20024;-88
2022/04/15 03:30:40;;;;;;;16.80;11.70;;;;;;;5.77;66.73;99794.22;5057005;28;20013;-87
2022/04/15 03:33:06;;;;;;;22.25;11.38;;;;;;;5.94;66.13;99804.25;5023153;28;20039;-88
2022/04/15 03:35:31;;;;;;;20.60;11.90;;;;;;;5.88;66.34;99797.97;5054788;28;20402;-88
2022/04/15 03:37:57;;;;;;;26.02;11.60;;;;;;;5.95;65.66;99803.25;5038448;28;20050;-91
2022/04/15 03:40:22;;;;;;;29.20;11.07;;;;;;;5.94;66.15;99798.91;5018691;28;20025;-88
2022/04/15 03:42:49;;;;;;;21.85;11.35;;;;;;;6.02;65.41;99801.31;5043448;28;20103;-90
2022/04/15 03:45:18;;;;;;;22.48;10.77;;;;;;;6.09;65.34;99794.00;5043243;28;20039;-89
2022/04/15 03:47:43;;;;;;;32.92;11.70;;;;;;;5.94;65.42;99801.59;5041508;28;20028;-88
2022/04/15 03:50:10;;;;;;;51.38;12.10;;;;;;;5.81;65.68;99805.25;5023569;28;20489;-88
2022/04/15 03:52:38;;;;;;;18.58;11.70;;;;;;;5.80;65.92;99791.06;5041335;28;20067;-88
2022/04/15 03:55:05;;;;;;;25.90;12.88;;;;;;;5.82;65.75;99805.03;5023754;28;20063;-88
2022/04/15 03:57:30;;;;;;;38.58;13.15;;;;;;;5.74;66.14;99804.53;5024225;28;20016;-89
2022/04/15 03:59:56;;;;;;;26.88;12.63;;;;;;;5.69;65.99;99799.88;5023681;28;20027;-91
2022/04/15 04:02:22;;;;;;;39.85;14.13;;;;;;;5.86;65.60;99811.53;5026159;28;20021;-89
2022/04/15 04:04:48;;;;;;;33.85;13.48;;;;;;;5.84;66.07;99805.59;5026519;28;20025;-90
2022/04/15 04:07:15;;;;;;;28.15;13.48;;;;;;;5.75;66.17;99790.94;5041781;28;20048;-92
2022/04/15 04:09:41;;;;;;;25.88;13.10;;;;;;;5.86;65.72;99784.81;5026137;28;20058;-88
2022/04/15 04:12:07;;;;;;;26.13;12.95;;;;;;;5.92;65.85;99790.31;5024165;28;20020;-88
2022/04/15 04:14:32;;;;;;;31.98;18.08;;;;;;;5.98;65.43;99792.13;5021960;28;20039;-88
2022/04/15 04:16:57;;;;;;;30.55;12.75;;;;;;;6.09;65.43;99796.66;5009986;28;20028;-88
2022/04/15 04:19:23;;;;;;;34.17;13.32;;;;;;;6.06;65.76;99792.59;5022992;28;20037;-91
2022/04/15 04:21:48;;;;;;;46.72;13.57;;;;;;;6.12;65.28;99798.91;5010852;28;20020;-90
2022/04/15 04:24:14;;;;;;;34.03;12.73;;;;;;;6.09;65.50;99796.66;5029008;28;20025;-91
2022/04/15 04:26:39;;;;;;;32.85;13.05;;;;;;;6.04;65.00;99802.69;5026331;28;20489;-92
2022/04/15 04:29:05;;;;;;;40.05;13.05;;;;;;;6.12;64.87;99795.38;5023319;28;20029;-89
2022/04/15 04:31:30;;;;;;;41.22;13.63;;;;;;;5.99;65.26;99799.88;5012477;28;20052;-89
2022/04/15 04:33:56;;;;;;;33.13;12.15;;;;;;;5.92;65.80;99795.66;5023613;28;20514;-91
2022/04/15 04:36:21;;;;;;;40.05;12.80;;;;;;;6.03;65.29;99803.72;5026422;28;20028;-88
2022/04/15 04:38:47;;;;;;;28.85;12.57;;;;;;;6.09;65.28;99810.03;5041628;28;20024;-89
2022/04/15 04:41:12;;;;;;;43.35;13.50;;;;;;;6.14;65.47;99795.97;5061916;28;20024;-89
2022/04/15 04:43:38;;;;;;;48.17;14.85;;;;;;;6.42;64.52;99822.09;5043523;28;20040;-89
2022/04/15 04:46:03;;;;;;;37.08;14.52;;;;;;;6.23;64.51;99782.06;5019956;28;20024;-88
2022/04/15 04:48:29;;;;;;;40.85;15.50;;;;;;;6.44;64.42;99807.44;5060919;28;20028;-90
2022/04/15 04:50:54;;;;;;;68.10;15.02;;;;;;;6.67;63.99;99825.38;5047372;28;20008;-89
2022/04/15 04:54:31;;;;;;;28.70;13.63;;;;;;;6.77;63.19;99806.06;5136791;27;20278;-94
2022/04/15 04:56:57;;;;;;;86.25;31.45;;;;;;;6.93;63.44;99822.47;5082319;28;20123;-89
2022/04/15 04:59:25;;;;;;;36.80;14.20;;;;;;;6.91;63.15;99805.81;5050057;28;20050;-89
2022/04/15 05:01:51;;;;;;;39.83;13.93;;;;;;;7.03;63.10;99817.34;5090851;28;20079;-90
2022/04/15 05:04:16;;;;;;;36.58;14.90;;;;;;;7.30;62.48;99823.00;5076191;28;20035;-90
2022/04/15 05:06:42;;;;;;;52.40;16.23;;;;;;;7.38;62.71;99833.38;5079569;28;20024;-94
2022/04/15 05:09:11;;;;;;;35.28;14.80;;;;;;;7.48;61.81;99830.91;5047505;28;20032;-95
2022/04/15 05:11:48;;;;;;;31.92;14.10;;;;;;;7.68;62.00;99827.00;5068734;28;20032;-96
2022/04/15 05:14:14;;;;;;;33.45;14.30;;;;;;;7.74;61.44;99804.63;5066931;28;20071;-96
2022/04/15 05:16:40;;;;;;;44.70;15.98;;;;;;;7.71;61.30;99791.69;5052647;28;20050;-95
2022/04/15 05:19:05;;;;;;;40.22;15.02;;;;;;;7.77;60.90;99795.28;5065331;28;20008;-92
2022/04/15 05:21:31;;;;;;;82.22;17.13;;;;;;;7.90;60.92;99798.47;5055174;28;20035;-88
2022/04/15 05:23:56;;;;;;;160.10;64.40;;;;;;;8.18;60.66;99794.16;5080266;28;20024;-92
2022/04/15 05:26:22;;;;;;;59.83;26.05;;;;;;;8.46;59.33;99781.75;5073004;28;20036;-92
2022/04/15 05:28:48;;;;;;;91.07;30.58;;;;;;;8.81;58.02;99799.47;5086396;28;20031;-90
2022/04/15 05:31:16;;;;;;;153.90;70.50;;;;;;;9.04;58.27;99818.03;5090676;28;20028;-95
2022/04/15 05:33:48;;;;;;;110.85;51.58;;;;;;;9.08;57.64;99786.94;5060551;28;20033;-96
2022/04/15 05:36:13;;;;;;;111.45;56.53;;;;;;;9.20;56.96;99792.22;5076246;28;20024;-89
2022/04/15 05:38:42;;;;;;;71.18;37.70;;;;;;;9.53;55.75;99803.09;5076513;28;20032;-94
2022/04/15 05:41:07;;;;;;;45.03;20.52;;;;;;;9.77;54.51;99796.38;5069098;28;20024;-89
2022/04/15 05:43:33;;;;;;;54.92;25.10;;;;;;;9.98;52.87;99799.28;5080372;28;20043;-91
2022/04/15 05:45:59;;;;;;;66.43;28.15;;;;;;;10.26;51.84;99812.47;5070858;28;20086;-88
2022/04/15 05:48:24;;;;;;;69.15;35.40;;;;;;;10.50;52.27;99821.06;5060126;28;20550;-88
2022/04/15 05:50:52;;;;;;;115.30;58.33;;;;;;;10.68;50.96;99802.88;5081483;28;20027;-94
2022/04/15 05:53:24;;;;;;;74.60;41.67;;;;;;;10.89;50.87;99798.44;5079537;28;20133;-89
2022/04/15 05:56:43;;;;;;;;;;;;;;;;;;;;;
2022/04/15 05:59:09;;;;;;;140.15;47.63;;;;;;;11.16;51.61;99809.09;5072018;28;20045;-95
2022/04/15 06:01:38;;;;;;;61.90;35.80;;;;;;;11.33;50.55;99792.75;5064032;28;20497;-94
2022/04/15 06:04:03;;;;;;;44.22;22.27;;;;;;;11.75;49.34;99812.59;5054529;28;20028;-94
2022/04/15 06:10:01;;;;;;;46.90;25.50;;;;;;;12.03;47.95;99790.53;5087844;28;20051;-96
2022/04/15 06:13:10;;;;;;;;;;;;;;;;;;;;;
2022/04/15 06:15:51;;;;;;;35.75;20.60;;;;;;;12.62;46.47;99793.81;5051599;28;20032;-96
2022/04/15 06:18:17;;;;;;;27.63;14.70;;;;;;;12.77;45.50;99787.59;4993443;28;20045;-91
2022/04/15 06:20:43;;;;;;;15.98;11.55;;;;;;;12.99;44.06;99792.66;4990438;28;20528;-93
2022/04/15 06:23:08;;;;;;;30.08;15.90;;;;;;;13.12;42.83;99809.13;4973530;28;20038;-91
2022/04/15 06:25:34;;;;;;;24.70;10.65;;;;;;;13.15;41.93;99788.84;4969188;28;20042;-91
2022/04/15 06:27:59;;;;;;;33.70;12.80;;;;;;;13.28;40.77;99790.97;4995859;28;20541;-93
2022/04/15 06:30:25;;;;;;;29.02;14.45;;;;;;;13.28;41.17;99777.47;4982009;28;20042;-90
2022/04/15 06:32:51;;;;;;;32.70;19.02;;;;;;;13.31;41.11;99771.50;4986461;28;20046;-91
2022/04/15 06:35:17;;;;;;;46.95;23.92;;;;;;;13.53;41.65;99792.78;5008730;28;20037;-88
2022/04/15 06:37:42;;;;;;;263.67;121.03;;;;;;;13.61;42.21;99790.59;4994088;28;20077;-90
2022/04/15 06:40:10;;;;;;;73.80;39.03;;;;;;;13.52;42.80;99766.81;4967348;28;20026;-90
2022/04/15 06:42:35;;;;;;;168.35;105.20;;;;;;;13.65;43.21;99776.22;4986409;28;20021;-92
2022/04/15 06:45:01;;;;;;;80.63;22.95;;;;;;;13.78;42.88;99773.97;4973253;28;20036;-92
2022/04/15 06:47:29;;;;;;;114.47;66.43;;;;;;;14.08;42.98;99800.06;5003613;28;20029;-92
2022/04/15 06:49:56;;;;;;;99.95;62.78;;;;;;;14.09;42.41;99783.56;5023481;28;20135;-94
2022/04/15 06:52:21;;;;;;;94.13;25.00;;;;;;;14.25;42.13;99786.94;5050720;28;20028;-91
2022/04/15 06:54:47;;;;;;;80.35;31.17;;;;;;;14.31;42.48;99776.88;5069132;28;20103;-90
2022/04/15 06:57:12;;;;;;;43.13;13.48;;;;;;;14.33;41.45;99770.06;5057213;28;20017;-91
2022/04/15 06:59:38;;;;;;;61.35;11.23;;;;;;;14.57;40.70;99787.53;5084891;28;20094;-89
2022/04/15 07:02:04;;;;;;;43.13;11.52;;;;;;;14.84;40.42;99789.72;5091680;28;20036;-90
2022/04/15 07:04:31;;;;;;;29.63;9.15;;;;;;;14.87;39.71;99779.09;5047941;28;20482;-91
2022/04/15 07:06:57;;;;;;;16.20;10.45;;;;;;;15.11;38.91;99770.19;5059756;28;20024;-91
2022/04/15 07:09:22;;;;;;;20.20;10.55;;;;;;;15.30;37.74;99778.38;5069644;28;20060;-91
2022/04/15 07:11:51;;;;;;;12.70;6.70;;;;;;;15.44;35.56;99765.72;5066289;28;20024;-92
2022/04/15 07:14:21;;;;;;;26.40;7.72;;;;;;;15.59;35.14;99761.19;5053941;28;20028;-91
2022/04/15 07:16:46;;;;;;;21.98;9.90;;;;;;;15.76;33.70;99775.88;5046889;28;20129;-90
2022/04/15 07:19:12;;;;;;;21.58;8.05;;;;;;;15.95;33.21;99775.09;5064817;28;20028;-93
2022/04/15 07:21:38;;;;;;;14.85;5.35;;;;;;;16.21;32.72;99769.25;5032594;28;20028;-91
2022/04/15 07:24:04;;;;;;;11.82;6.25;;;;;;;16.38;31.79;99766.81;5045751;28;20021;-91
2022/04/15 07:26:30;;;;;;;13.00;4.60;;;;;;;16.43;31.49;99750.41;5081251;28;20028;-91
2022/04/15 07:29:15;;;;;;;15.15;5.97;;;;;;;16.84;31.16;99766.03;5067421;28;20100;-94
2022/04/15 07:31:46;;;;;;;22.73;5.60;;;;;;;16.94;31.25;99762.31;5064686;28;20146;-92
2022/04/15 07:34:19;;;;;;;23.15;5.10;;;;;;;17.12;31.01;99780.47;5030682;28;20115;-91
2022/04/15 07:37:03;;;;;;;22.98;5.00;;;;;;;17.20;30.71;99748.22;5046295;28;20094;-91
2022/04/15 07:39:48;;;;;;;34.85;21.67;;;;;;;17.32;30.99;99762.13;5066509;28;20020;-94
2022/04/15 07:42:16;;;;;;;34.45;17.48;;;;;;;17.44;31.12;99748.00;5052288;28;20047;-91
2022/04/15 07:44:41;;;;;;;23.02;8.00;;;;;;;17.74;30.25;99755.50;5046314;28;20043;-94
2022/04/15 07:47:16;;;;;;;13.75;7.22;;;;;;;18.04;30.51;99768.75;5065095;28;20020;-95
2022/04/15 07:49:56;;;;;;;18.42;7.80;;;;;;;18.07;29.67;99752.56;5072352;28;20016;-94
2022/04/15 07:52:35;;;;;;;;;;;;;;;;;;;;;
2022/04/15 07:55:03;;;;;;;11.60;6.00;;;;;;;18.46;29.13;99763.91;5008415;28;20133;-92
2022/04/15 07:57:37;;;;;;;23.75;5.40;;;;;;;18.60;28.58;99766.56;4988979;28;20101;-93
2022/04/15 08:00:09;;;;;;;15.70;3.90;;;;;;;18.58;28.65;99750.53;4990013;28;20504;-95
2022/04/15 08:04:20;;;;;;;18.40;4.45;;;;;;;18.65;26.65;99739.16;5064349;27;1643138;-96
2022/04/15 08:06:46;;;;;;;79.70;7.50;;;;;;;18.57;27.59;99740.72;5066557;28;20025;-96
2022/04/15 08:20:46;;;;;;;11.82;4.38;;;;;;;19.77;25.58;99735.19;5077603;27;1905515;-95
2022/04/15 08:23:13;;;;;;;13.18;5.60;;;;;;;19.66;25.50;99721.00;5089098;28;20053;-93
2022/04/15 08:28:55;;;;;;;12.32;3.80;;;;;;;19.91;24.76;99732.28;5076124;28;20055;-93
2022/04/15 08:31:21;;;;;;;7.35;3.65;;;;;;;19.94;24.12;99727.00;5067291;28;20031;-92
2022/04/15 08:33:47;;;;;;;5.93;3.22;;;;;;;19.85;24.06;99701.59;5071742;28;20031;-93
2022/04/15 08:38:49;;;;;;;17.58;8.75;;;;;;;20.01;24.71;99701.09;5069617;22;20261;-96
2022/04/15 08:41:15;;;;;;;22.60;8.27;;;;;;;20.26;24.82;99715.88;4994489;28;20111;-92
2022/04/15 08:43:43;;;;;;;12.10;4.60;;;;;;;20.34;23.91;99701.38;4992164;28;20025;-93
2022/04/15 08:46:10;;;;;;;17.45;5.20;;;;;;;20.48;23.47;99699.25;4993903;28;20028;-91
2022/04/15 08:51:36;;;;;;;8.65;3.47;;;;;;;20.52;24.16;99704.84;5044535;28;20045;-92
2022/04/15 08:54:12;;;;;;;9.75;3.67;;;;;;;20.58;22.79;99700.81;5024487;28;20037;-95
2022/04/15 08:59:19;;;;;;;11.65;3.60;;;;;;;20.74;22.53;99680.00;5013615;27;3037422;-96
2022/04/15 09:02:06;;;;;;;7.35;3.67;;;;;;;20.83;23.01;99665.47;5056137;28;20138;-94
2022/04/15 09:04:34;;;;;;;15.63;4.35;;;;;;;21.02;22.33;99671.31;5009733;28;20029;-94
2022/04/15 09:07:00;;;;;;;12.45;4.03;;;;;;;21.04;22.24;99669.06;5008043;28;20036;-94
2022/04/15 09:09:29;;;;;;;11.05;4.20;;;;;;;21.14;21.87;99659.66;5025347;28;20495;-95
2022/04/15 09:11:59;;;;;;;11.88;4.45;;;;;;;21.37;21.35;99682.88;4967842;28;20045;-95
2022/04/15 09:14:25;;;;;;;6.47;3.30;;;;;;;21.22;21.03;99656.06;4967354;28;20054;-93
2022/04/15 09:16:54;;;;;;;21.13;3.63;;;;;;;21.33;21.53;99673.72;4967486;28;20062;-93
2022/04/15 09:19:20;;;;;;;6.05;3.03;;;;;;;21.42;21.32;99654.50;4963421;28;20045;-95
2022/04/15 09:21:55;;;;;;;22.42;4.05;;;;;;;21.42;21.38;99649.03;4963407;28;20122;-94
2022/04/15 09:24:27;;;;;;;20.02;7.43;;;;;;;21.50;22.18;99667.34;4948101;28;20050;-95
2022/04/15 09:26:53;;;;;;;;;;;;;;;21.66;21.45;99661.22;4995031;28;20049;-93
2022/04/15 09:29:38;;;;;;;19.20;4.05;;;;;;;21.55;21.03;99663.59;4983520;28;19910;-90
2022/04/15 09:32:14;;;;;;;7.38;3.42;;;;;;;21.67;21.03;99658.16;4979955;28;20053;-91
2022/04/15 09:35:22;;;;;;;4.78;3.10;;;;;;;21.56;20.40;99637.78;4989461;28;20033;-91
2022/04/15 09:37:53;;;;;;;7.00;4.00;;;;;;;21.65;21.58;99626.75;5017888;28;20110;-92
2022/04/15 09:40:22;;;;;;;15.35;4.32;;;;;;;21.72;21.32;99624.25;5004236;28;20113;-93
2022/04/15 09:42:51;;;;;;;5.43;3.03;;;;;;;21.97;21.06;99638.84;5021169;28;20086;-90
2022/04/15 09:45:21;;;;;;;21.42;4.13;;;;;;;22.09;20.68;99630.66;5044409;28;20017;-93
2022/04/15 09:47:57;;;;;;;12.38;3.65;;;;;;;22.34;20.95;99644.44;5061943;28;20020;-89
2022/04/15 09:50:36;;;;;;;8.18;3.70;;;;;;;22.36;22.04;99615.53;5041080;28;20019;-89
2022/04/15 09:53:12;;;;;;;22.60;4.47;;;;;;;22.25;20.87;99616.34;5041572;28;20033;-94
2022/04/15 09:55:50;;;;;;;23.10;4.35;;;;;;;22.29;20.93;99609.03;5083742;28;20114;-96
2022/04/15 09:58:29;;;;;;;;;;;;;;;;;;;;;
2022/04/15 10:01:01;;;;;;;6.68;3.45;;;;;;;22.52;21.22;99610.16;5084195;28;20116;-96
2022/04/15 10:06:21;;;;;;;10.85;3.35;;;;;;;22.65;20.04;99600.00;5033601;28;19909;-93
2022/04/15 10:08:47;;;;;;;;;;;;;;;22.84;20.03;99620.56;5037275;28;20112;-93
2022/04/15 10:11:13;;;;;;;6.55;3.80;;;;;;;22.86;19.94;99610.03;5009964;28;19963;-95
2022/04/15 10:14:01;;;;;;;10.07;3.92;;;;;;;22.73;19.89;99596.31;5025912;28;20045;-96
2022/04/15 10:16:27;;;;;;;19.63;3.90;;;;;;;22.70;19.84;99585.22;5010008;28;20044;-91
2022/04/15 10:18:55;;;;;;;5.00;3.50;;;;;;;22.76;19.87;99589.34;5009400;28;20033;-93
2022/04/15 10:21:21;;;;;;;8.85;3.28;;;;;;;22.69;23.77;99611.09;5024476;28;20029;-91
2022/04/15 10:23:46;;;;;;;7.80;3.33;;;;;;;22.52;24.90;99592.91;5009770;28;20279;-91
2022/04/15 10:26:12;;;;;;;7.65;3.80;;;;;;;22.49;25.16;99597.13;5024210;28;20167;-91
2022/04/15 10:28:47;;;;;;;8.27;3.20;;;;;;;22.29;25.58;99587.06;5038403;28;20040;-90
2022/04/15 10:31:17;;;;;;;8.00;3.03;;;;;;;22.18;25.37;99581.19;5022839;28;20033;-91
2022/04/15 10:34:07;;;;;;;15.18;4.25;;;;;;;22.03;26.26;99568.94;5030460;28;20539;-91
2022/04/15 10:36:40;;;;;;;7.47;3.38;;;;;;;21.98;25.41;99558.22;5014663;28;20025;-92
2022/04/15 10:39:09;;;;;;;9.27;3.35;;;;;;;22.16;25.74;99569.75;5046716;28;20024;-93
2022/04/15 10:41:48;;;;;;;5.28;3.30;;;;;;;22.08;25.42;99573.41;5043629;28;20071;-93
2022/04/15 10:44:37;;;;;;;3.55;2.80;;;;;;;22.18;25.78;99581.19;5051068;28;20088;-93
2022/04/15 10:47:22;;;;;;;5.68;3.53;;;;;;;22.12;25.43;99566.91;5059422;28;20032;-89
2022/04/15 10:50:07;;;;;;;8.05;3.17;;;;;;;22.22;25.49;99568.38;5046291;28;20028;-92
2022/04/15 10:52:34;;;;;;;4.80;2.60;;;;;;;22.20;24.58;99546.81;5066659;28;20024;-90
2022/04/15 10:55:06;;;;;;;6.40;3.00;;;;;;;22.20;24.18;99544.06;5030908;28;20123;-91
2022/04/15 10:57:54;;;;;;;;;;;;;;;22.28;23.86;99558.81;5038259;28;20044;-94
2022/04/15 11:03:27;;;;;;;12.63;3.05;;;;;;;22.12;24.34;99516.72;5027555;28;20534;-93
2022/04/15 11:06:09;;;;;;;3.70;2.53;;;;;;;22.17;23.35;99511.03;5032989;28;20505;-94
2022/04/15 11:08:50;;;;;;;18.20;3.20;;;;;;;22.17;23.42;99509.09;5012843;28;20022;-92
2022/04/15 11:11:18;;;;;;;6.05;2.80;;;;;;;22.25;23.02;99531.28;5010240;28;20033;-94
2022/04/15 11:14:14;;;;;;;5.82;2.40;;;;;;;22.30;22.62;99525.56;5010219;28;20037;-93
2022/04/15 11:16:44;;;;;;;5.38;2.60;;;;;;;22.26;22.05;99498.00;5012949;28;20041;-92
2022/04/15 11:19:13;;;;;;;5.97;2.63;;;;;;;22.46;21.92;99509.22;5011264;28;20081;-91
2022/04/15 11:21:56;;;;;;;7.95;3.60;;;;;;;22.71;22.34;99531.94;4995085;28;20033;-91
2022/04/15 11:24:26;;;;;;;12.70;7.50;;;;;;;22.53;22.16;99501.19;5015497;28;20099;-92
2022/04/15 11:27:03;;;;;;;6.68;2.85;;;;;;;22.72;21.70;99517.88;4991133;28;20037;-89
2022/04/15 11:29:34;;;;;;;4.82;2.53;;;;;;;22.58;22.54;99501.75;4997775;28;20064;-94
2022/04/15 11:32:09;;;;;;;3.53;2.40;;;;;;;22.72;22.40;99490.41;5029661;28;20090;-95
2022/04/15 11:34:37;;;;;;;6.63;2.55;;;;;;;22.73;22.20;99491.22;5035976;28;20031;-93
2022/04/15 11:37:05;;;;;;;4.13;2.63;;;;;;;22.70;22.48;99480.91;5034749;28;20028;-93
2022/04/15 11:39:49;;;;;;;5.18;2.53;;;;;;;22.99;21.85;99508.06;5036045;28;20028;-95
2022/04/15 11:42:17;;;;;;;6.38;3.03;;;;;;;22.91;21.61;99484.31;5054463;28;20032;-93
2022/04/15 11:44:43;;;;;;;7.65;3.55;;;;;;;23.04;21.48;99495.28;5036410;28;20047;-94
2022/04/15 11:47:33;;;;;;;4.70;2.53;;;;;;;22.87;21.94;99468.84;5057288;28;20013;-96
2022/04/15 11:50:02;;;;;;;8.88;6.68;;;;;;;22.87;21.34;99475.16;5008768;28;20042;-96
2022/04/15 11:52:27;;;;;;;7.00;2.65;;;;;;;22.87;21.47;99461.44;5007256;28;20105;-94
2022/04/15 11:54:58;;;;;;;5.03;2.85;;;;;;;22.97;21.44;99458.19;5007522;28;20037;-93
2022/04/15 11:57:25;;;;;;;;;;;;;;;23.22;21.18;99490.25;5004448;28;20047;-92
2022/04/15 11:59:51;;;;;;;4.40;2.40;;;;;;;23.07;21.36;99478.09;4985850;28;19916;-91
2022/04/15 12:02:18;;;;;;;4.40;2.53;;;;;;;22.98;21.46;99459.78;5002010;28;20094;-92
2022/04/15 12:04:55;;;;;;;7.38;2.60;;;;;;;23.06;22.28;99471.78;4989366;28;20045;-92
2022/04/15 12:07:23;;;;;;;9.20;2.83;;;;;;;23.05;21.80;99456.44;5017584;28;20022;-89
2022/04/15 12:09:50;;;;;;;4.75;2.33;;;;;;;22.93;21.25;99442.75;4986783;28;20042;-92
2022/04/15 12:12:25;;;;;;;6.57;2.10;;;;;;;22.99;21.56;99460.56;5003403;28;20093;-92
2022/04/15 12:14:56;;;;;;;4.78;2.75;;;;;;;23.03;21.60;99447.75;4955334;28;20051;-93